Time;durP1;ratioP1;P1;durP2;ratioP2;P2;SDS_P1;SDS_P2;PMS_P1;PMS_P2;Temp;Humidity;BMP_temperature;BMP_pressure;BME280_temperature;BME280_humidity;BME280_pressure;Samples;Min_cycle;Max_cycle;Signal;HPM_P1;HPM_P2
2021/06/19 00:01:58;;;;;;;13.45;5.88;;;24.80;99.90;;;24.79;52.08;100897.75;4933255;28;100278;-55
2021/06/19 00:04:25;;;;;;;7.68;5.50;;;24.70;98.50;;;24.81;55.19;100898.47;4943921;28;98068;-60
2021/06/19 00:06:51;;;;;;;8.20;5.35;;;24.80;99.90;;;24.85;55.36;100902.56;4951044;28;99016;-56
2021/06/19 00:09:17;;;;;;;11.80;5.80;;;24.80;99.90;;;24.84;56.78;100908.97;4945087;28;97581;-59
2021/06/19 00:11:42;;;;;;;10.20;5.57;;;24.80;99.90;;;24.84;57.16;100906.25;4954673;28;100152;-57
2021/06/19 00:14:08;;;;;;;12.52;5.80;;;24.80;99.90;;;24.85;56.31;100918.75;4939831;28;102828;-51
2021/06/19 00:16:34;;;;;;;10.70;5.00;;;24.80;99.90;;;24.83;57.21;100918.03;4946319;28;99895;-55
2021/06/19 00:19:02;;;;;;;10.75;6.10;;;24.80;99.90;;;24.83;58.06;100923.44;4930693;28;99662;-54
2021/06/19 00:21:28;;;;;;;11.63;5.70;;;24.80;99.90;;;24.79;57.16;100922.03;4946350;28;98896;-51
2021/06/19 00:23:53;;;;;;;11.38;5.57;;;24.70;99.90;;;24.80;57.65;100926.44;4936925;28;99919;-55
2021/06/19 00:26:19;;;;;;;8.88;5.55;;;24.70;99.90;;;24.79;58.55;100930.13;4956252;28;99638;-51
2021/06/19 00:28:45;;;;;;;9.65;5.95;;;24.70;99.90;;;24.77;58.18;100935.66;4938292;28;97936;-57
2021/06/19 00:31:11;;;;;;;9.25;5.03;;;24.70;99.90;;;24.77;58.62;100929.41;4938298;28;98467;-55
2021/06/19 00:33:36;;;;;;;9.32;5.13;;;24.70;99.90;;;24.75;56.23;100928.69;4944112;28;98471;-59
2021/06/19 00:36:03;;;;;;;8.15;5.20;;;24.70;99.90;;;24.73;58.43;100931.50;4941188;28;98508;-50
2021/06/19 00:38:29;;;;;;;7.93;5.20;;;24.70;99.90;;;24.72;57.73;100928.97;4941417;28;98543;-53
2021/06/19 00:40:54;;;;;;;11.35;5.18;;;24.60;99.90;;;24.69;55.11;100931.94;4935485;28;97837;-53
2021/06/19 00:43:20;;;;;;;8.07;4.80;;;24.60;99.90;;;24.67;55.36;100925.84;4936618;28;99428;-59
2021/06/19 00:45:46;;;;;;;9.85;5.53;;;24.60;99.90;;;24.69;58.33;100926.53;4920113;28;99017;-56
2021/06/19 00:48:13;;;;;;;6.70;4.70;;;24.60;99.90;;;24.68;54.70;100924.84;4935149;28;99116;-56
2021/06/19 00:50:43;;;;;;;11.10;5.28;;;24.60;99.90;;;24.66;55.62;100934.91;4924137;28;99151;-55
2021/06/19 00:53:10;;;;;;;8.20;5.05;;;24.60;99.90;;;24.66;59.29;100932.22;4930744;28;100548;-58
2021/06/19 00:55:36;;;;;;;7.80;4.68;;;24.50;99.90;;;24.63;59.32;100936.91;4921612;28;99553;-59
2021/06/19 00:58:03;;;;;;;9.68;4.57;;;24.50;99.90;;;24.61;58.18;100930.81;4926530;28;100682;-59
2021/06/19 01:00:30;;;;;;;9.38;4.60;;;24.50;99.90;;;24.61;58.35;100932.66;4919780;28;99384;-58
2021/06/19 01:02:57;;;;;;;7.18;4.53;;;24.50;99.90;;;24.60;59.05;100928.25;4913405;28;100856;-59
2021/06/19 01:05:27;;;;;;;7.63;5.13;;;24.50;99.90;;;24.59;57.15;100930.09;4932828;28;99348;-56
2021/06/19 01:07:56;;;;;;;7.97;4.30;;;24.50;99.90;;;24.57;59.89;100929.34;4917941;28;103655;-56
2021/06/19 01:10:22;;;;;;;6.00;4.40;;;24.40;99.90;;;24.55;55.52;100934.03;4942902;28;98453;-49
2021/06/19 01:12:48;;;;;;;9.38;4.57;;;24.40;99.90;;;24.55;58.26;100939.44;4920808;28;99805;-49
2021/06/19 01:15:15;;;;;;;7.72;4.45;;;24.40;99.90;;;24.54;59.23;100940.41;4926300;28;99923;-50
2021/06/19 01:17:42;;;;;;;6.78;4.15;;;24.40;99.90;;;24.52;59.85;100942.41;4934083;28;99049;-52
2021/06/19 01:20:11;;;;;;;7.80;4.57;;;24.40;99.90;;;24.51;59.04;100940.69;4920940;28;97583;-49
2021/06/19 01:22:40;;;;;;;5.75;3.85;;;24.40;99.90;;;24.48;58.52;100938.28;4940749;28;103516;-49
2021/06/19 01:25:11;;;;;;;6.85;3.70;;;24.40;99.90;;;24.48;58.98;100938.28;4916472;28;98549;-51
2021/06/19 01:27:38;;;;;;;5.95;3.78;;;24.40;99.90;;;24.47;59.73;100941.97;4923719;28;98478;-54
2021/06/19 01:30:08;;;;;;;6.80;3.92;;;24.40;99.90;;;24.46;58.82;100929.50;4927179;28;98994;-48
2021/06/19 01:32:38;;;;;;;5.13;3.78;;;24.30;99.90;;;24.45;59.72;100927.78;4923799;28;99025;-52
2021/06/19 01:35:06;;;;;;;4.53;3.45;;;24.30;99.90;;;24.45;59.95;100933.19;4919319;28;98423;-48
2021/06/19 01:37:32;;;;;;;5.50;3.45;;;24.30;99.90;;;24.42;59.72;100933.44;4925086;28;99005;-51
2021/06/19 01:40:12;;;;;;;6.27;4.20;;;24.30;99.90;;;24.42;59.81;100937.97;4901580;28;98722;-50
2021/06/19 01:42:43;;;;;;;8.25;4.55;;;24.20;99.90;;;24.38;60.25;100932.00;4938284;28;98922;-54
2021/06/19 01:45:21;;;;;;;4.68;3.42;;;24.20;99.90;;;24.37;60.28;100933.00;4919967;28;101322;-53
2021/06/19 01:47:48;;;;;;;5.88;3.47;;;24.20;99.90;;;24.32;60.15;100928.03;4924485;28;97690;-53
2021/06/19 01:50:18;;;;;;;6.32;3.35;;;24.10;99.90;;;24.31;60.19;100920.09;4899570;28;98231;-47
2021/06/19 01:52:44;;;;;;;4.82;3.30;;;24.10;99.90;;;24.28;60.00;100931.94;4939012;28;97735;-57
2021/06/19 01:55:12;;;;;;;6.22;3.65;;;24.10;99.90;;;24.27;60.33;100935.63;4907155;28;101354;-52
2021/06/19 01:57:38;;;;;;;7.28;3.60;;;24.10;99.90;;;24.25;60.14;100932.22;4929571;28;98827;-53
2021/06/19 02:00:18;;;;;;;6.55;3.92;;;24.00;99.90;;;24.24;60.12;100935.91;4909806;28;101237;-48
2021/06/19 02:02:44;;;;;;;5.22;3.60;;;24.00;99.90;;;24.22;60.39;100937.03;4925888;28;98547;-56
2021/06/19 02:05:12;;;;;;;6.47;3.73;;;24.00;99.90;;;24.19;60.14;100938.16;4907856;28;100190;-49
2021/06/19 02:07:48;;;;;;;7.73;3.80;;;24.00;99.90;;;24.18;59.90;100947.22;4908888;28;105189;-48
2021/06/19 02:10:17;;;;;;;6.10;3.58;;;23.90;99.90;;;24.15;59.90;100950.16;4909061;28;99030;-49
2021/06/19 02:12:43;;;;;;;5.03;2.83;;;23.90;99.90;;;24.15;59.94;100946.63;4928137;28;100817;-49
2021/06/19 02:15:10;;;;;;;10.07;4.40;;;23.90;99.90;;;24.12;59.63;100945.06;4902678;28;105305;-47
2021/06/19 02:17:37;;;;;;;4.83;3.53;;;23.90;99.90;;;24.10;60.12;100959.66;4925876;28;98998;-51
2021/06/19 02:20:11;;;;;;;8.27;3.60;;;23.90;99.90;;;24.09;60.03;100957.97;4920545;28;97636;-49
2021/06/19 02:22:38;;;;;;;6.30;3.50;;;23.80;99.90;;;24.08;59.76;100961.63;4913043;28;99398;-49
2021/06/19 02:25:11;;;;;;;6.03;3.73;;;23.80;99.90;;;24.07;59.99;100960.78;4918726;28;97538;-51
2021/06/19 02:27:48;;;;;;;5.37;3.57;;;23.80;99.90;;;24.08;60.09;100961.63;4920006;28;98719;-51
2021/06/19 02:30:15;;;;;;;7.70;3.77;;;23.80;99.90;;;24.06;59.87;100963.63;4921061;28;97485;-48
2021/06/19 02:32:42;;;;;;;4.20;3.53;;;23.80;99.90;;;24.06;59.85;100963.63;4923730;28;97727;-53
2021/06/19 02:35:08;;;;;;;6.07;3.43;;;23.80;99.90;;;24.06;59.88;100963.63;4958609;28;100391;-50
2021/06/19 02:37:34;;;;;;;4.10;3.13;;;23.80;99.90;;;24.07;59.73;100962.63;4950965;28;96984;-49
2021/06/19 02:40:00;;;;;;;5.53;3.47;;;23.80;99.90;;;24.04;59.54;100961.06;4954084;28;102312;-48
2021/06/19 02:42:26;;;;;;;4.07;2.57;;;23.80;99.90;;;24.05;59.78;100957.38;4949845;28;97834;-50
2021/06/19 02:44:52;;;;;;;6.97;3.43;;;23.80;99.90;;;24.06;58.96;100963.63;4952907;28;97106;-48
2021/06/19 02:47:17;;;;;;;7.60;3.37;;;23.80;99.90;;;24.06;58.18;100963.63;4945396;28;100183;-49
2021/06/19 02:49:43;;;;;;;5.90;3.60;;;23.80;99.90;;;24.03;59.14;100962.91;4956187;28;97210;-50
2021/06/19 02:52:10;;;;;;;4.63;3.13;;;23.80;99.90;;;24.03;58.85;100970.13;4960528;28;101785;-48
2021/06/19 02:54:40;;;;;;;3.50;3.20;;;23.80;99.90;;;23.99;59.08;100969.53;4959205;28;98941;-48
2021/06/19 02:57:08;;;;;;;5.13;3.23;;;23.70;99.90;;;24.00;57.80;100968.53;4953554;28;96775;-47
2021/06/19 02:59:35;;;;;;;5.80;3.23;;;23.70;99.90;;;23.97;58.35;100966.13;4958713;28;97118;-51
2021/06/19 03:02:01;;;;;;;5.40;2.57;;;23.70;99.90;;;23.97;58.42;100963.41;4954650;28;97386;-46
2021/06/19 03:04:27;;;;;;;5.20;2.30;;;23.70;99.90;;;23.96;57.23;100964.41;4956008;28;97299;-49
2021/06/19 03:06:53;;;;;;;2.43;2.13;;;23.70;99.90;;;24.00;56.51;100959.59;4955530;28;97391;-48
2021/06/19 03:09:19;;;;;;;3.53;2.03;;;23.80;99.90;;;24.01;56.19;100962.19;4952108;28;103298;-48
2021/06/19 03:11:45;;;;;;;4.78;1.88;;;23.80;99.90;;;24.04;55.82;100978.09;4952925;28;98082;-58
2021/06/19 03:14:11;;;;;;;2.40;1.80;;;23.90;99.90;;;24.09;55.38;100979.50;4947676;28;104312;-50
2021/06/19 03:16:36;;;;;;;7.43;2.33;;;23.90;99.90;;;24.12;55.48;100985.47;4956319;28;96855;-48
2021/06/19 03:19:05;;;;;;;3.13;1.70;;;24.00;99.90;;;24.15;55.18;100984.34;4947149;28;97046;-47
2021/06/19 03:21:33;;;;;;;4.80;2.07;;;24.00;99.90;;;24.18;55.28;100989.50;4955568;28;97722;-50
2021/06/19 03:23:59;;;;;;;3.47;1.90;;;24.10;99.90;;;24.20;55.25;100987.53;4956495;28;100681;-49
2021/06/19 03:26:25;;;;;;;3.83;1.95;;;24.10;99.90;;;24.19;54.68;100985.81;4958121;28;97586;-49
2021/06/19 03:28:51;;;;;;;3.33;1.87;;;24.10;99.90;;;24.22;55.18;100986.38;4942214;28;97616;-49
2021/06/19 03:31:16;;;;;;;2.70;2.13;;;24.10;99.90;;;24.23;56.31;100993.47;4950891;28;104977;-52
2021/06/19 03:33:42;;;;;;;1.88;1.73;;;24.10;99.90;;;24.22;55.04;101001.72;4948772;28;99545;-48
2021/06/19 03:36:08;;;;;;;2.97;1.57;;;24.10;99.90;;;24.21;54.71;100994.63;4949467;28;97337;-48
2021/06/19 03:38:34;;;;;;;2.83;1.90;;;24.10;99.90;;;24.21;54.61;100995.47;4957007;28;97021;-47
2021/06/19 03:41:00;;;;;;;4.03;1.75;;;24.10;99.90;;;24.22;54.68;100994.47;4948791;28;98133;-48
2021/06/19 03:43:26;;;;;;;4.32;2.03;;;24.10;99.90;;;24.23;54.82;100998.03;4968150;28;100045;-47
2021/06/19 03:45:51;;;;;;;3.63;1.80;;;24.10;99.90;;;24.20;54.42;100999.16;4950783;28;97343;-49
2021/06/19 03:48:17;;;;;;;3.30;1.83;;;24.10;99.90;;;24.21;54.49;101002.69;4956537;28;97420;-47
2021/06/19 03:50:43;;;;;;;3.93;1.60;;;24.10;99.90;;;24.19;54.42;101008.22;4951412;28;97012;-49
2021/06/19 03:53:09;;;;;;;2.55;1.52;;;24.10;99.90;;;24.17;54.22;101015.59;4950018;28;100505;-50
2021/06/19 03:55:35;;;;;;;2.57;1.53;;;24.10;99.90;;;24.18;54.24;101013.75;4964464;28;97998;-51
2021/06/19 03:58:01;;;;;;;4.97;2.00;;;24.10;99.90;;;24.20;54.29;101009.06;4945791;28;96778;-50
2021/06/19 04:00:29;;;;;;;3.67;1.43;;;24.10;99.90;;;24.21;54.66;101021.56;4950157;28;97243;-51
2021/06/19 04:02:55;;;;;;;4.90;1.30;;;24.10;99.90;;;24.22;54.78;101024.13;4946495;28;97286;-48
2021/06/19 04:05:21;;;;;;;2.07;1.30;;;24.10;99.90;;;24.24;54.78;101032.06;4967818;28;99372;-49
2021/06/19 04:07:48;;;;;;;2.92;1.60;;;24.10;99.90;;;24.24;55.46;101041.00;4947141;28;97069;-51
2021/06/19 04:10:16;;;;;;;1.70;1.60;;;24.10;99.90;;;24.26;56.39;101035.47;4964590;28;97193;-46
2021/06/19 04:12:42;;;;;;;5.07;1.67;;;24.10;99.90;;;24.23;56.79;101035.75;4953604;28;99405;-49
2021/06/19 04:15:11;;;;;;;2.03;1.70;;;24.00;99.90;;;24.21;57.19;101040.44;4963939;28;97110;-48
2021/06/19 04:17:38;;;;;;;4.53;1.70;;;24.00;99.90;;;24.21;57.67;101043.13;4954387;28;98797;-49
2021/06/19 04:20:10;;;;;;;2.90;1.87;;;24.00;99.90;;;24.20;56.39;101049.50;4950643;28;102692;-49
2021/06/19 04:22:36;;;;;;;3.53;1.70;;;23.90;99.90;;;24.17;58.08;101047.09;4964601;28;97129;-48
2021/06/19 04:25:04;;;;;;;2.73;1.90;;;23.90;99.90;;;24.15;57.53;101043.63;4969356;28;97082;-49
2021/06/19 04:27:40;;;;;;;2.77;1.90;;;23.90;99.90;;;24.13;57.63;101040.22;4955108;28;97026;-51
2021/06/19 04:30:10;;;;;;;3.77;1.80;;;23.90;99.90;;;24.11;57.08;101047.59;4954594;28;97685;-49
2021/06/19 04:32:36;;;;;;;3.57;1.77;;;23.90;99.90;;;24.10;57.12;101040.50;4955612;28;96776;-47
2021/06/19 04:35:03;;;;;;;3.93;1.60;;;23.80;99.90;;;24.12;55.35;101043.91;4953517;28;98363;-48
2021/06/19 04:37:29;;;;;;;5.70;1.93;;;23.90;99.90;;;24.11;56.81;101048.44;4952167;28;97456;-49
2021/06/19 04:40:03;;;;;;;4.47;2.10;;;23.90;99.90;;;24.11;57.47;101043.06;4951822;28;97660;-52
2021/06/19 04:42:35;;;;;;;2.30;1.90;;;23.90;99.90;;;24.12;56.70;101046.59;4948578;28;97298;-49
2021/06/19 04:45:02;;;;;;;1.53;1.43;;;23.90;99.90;;;24.11;55.76;101044.91;4953193;28;97138;-50
2021/06/19 04:47:29;;;;;;;3.93;1.90;;;23.90;99.90;;;24.12;55.84;101052.00;4949564;28;97608;-47
2021/06/19 04:49:57;;;;;;;2.73;1.70;;;23.90;99.90;;;24.10;56.33;101052.13;4950701;28;97642;-49
2021/06/19 04:52:23;;;;;;;1.60;1.17;;;23.90;99.90;;;24.11;55.60;101052.97;4952908;28;100544;-52
2021/06/19 04:54:51;;;;;;;2.20;1.70;;;23.90;99.90;;;24.12;56.12;101055.53;4952174;28;97303;-49
2021/06/19 04:57:17;;;;;;;1.30;1.20;;;23.90;99.90;;;24.11;55.75;101069.16;4951428;28;101670;-48
2021/06/19 04:59:43;;;;;;;1.77;1.50;;;23.90;99.90;;;24.08;55.64;101077.50;4971449;28;98357;-48
2021/06/19 05:02:09;;;;;;;3.70;1.50;;;23.90;99.90;;;24.08;55.32;101072.13;4949790;28;99207;-48
2021/06/19 05:04:34;;;;;;;1.60;1.50;;;23.90;99.90;;;24.08;55.05;101064.88;4956167;28;98293;-48
2021/06/19 05:07:00;;;;;;;2.63;1.27;;;23.90;99.90;;;24.09;55.46;101068.44;4953472;28;97154;-48
2021/06/19 05:09:26;;;;;;;1.70;1.40;;;23.90;99.90;;;24.08;55.28;101080.19;4955348;28;110860;-50
2021/06/19 05:11:52;;;;;;;5.10;1.30;;;23.90;99.90;;;24.07;55.28;101083.88;4966416;28;97399;-53
2021/06/19 05:14:17;;;;;;;2.63;1.50;;;23.90;99.90;;;24.11;55.46;101085.31;4968857;28;97601;-54
2021/06/19 05:16:43;;;;;;;1.23;1.13;;;23.90;99.90;;;24.11;54.73;101085.31;4958925;28;97487;-52
2021/06/19 05:19:11;;;;;;;2.85;1.20;;;23.90;99.90;;;24.12;54.88;101092.41;4950099;28;104166;-52
2021/06/19 05:21:37;;;;;;;2.10;1.20;;;24.00;99.90;;;24.13;55.26;101091.44;4957308;28;97322;-52
2021/06/19 05:24:03;;;;;;;2.00;1.30;;;24.00;99.90;;;24.16;54.85;101078.56;4950303;28;101717;-52
2021/06/19 05:26:29;;;;;;;2.10;1.13;;;24.00;99.90;;;24.17;54.24;101084.81;4957373;28;97063;-58
2021/06/19 05:28:55;;;;;;;3.08;1.33;;;24.00;99.90;;;24.18;54.47;101075.75;4948784;28;114585;-53
2021/06/19 05:31:20;;;;;;;1.30;1.00;;;24.10;99.90;;;24.18;54.40;101075.75;4971970;28;97059;-51
2021/06/19 05:33:46;;;;;;;1.93;0.90;;;24.10;99.90;;;24.18;54.61;101081.13;4941813;28;97963;-54
2021/06/19 05:36:12;;;;;;;4.33;1.37;;;24.10;99.90;;;24.17;54.21;101074.03;4953774;28;97070;-49
2021/06/19 05:38:37;;;;;;;1.30;1.20;;;24.10;99.90;;;24.19;54.41;101077.44;4952131;28;102327;-55
2021/06/19 05:41:03;;;;;;;1.87;1.33;;;24.10;99.90;;;24.22;54.73;101071.78;4965767;28;111724;-52
2021/06/19 05:43:29;;;;;;;2.72;1.10;;;24.10;99.90;;;24.24;54.84;101069.81;4952961;28;97235;-48
2021/06/19 05:45:55;;;;;;;2.30;1.33;;;24.10;99.90;;;24.24;54.32;101070.66;4947958;28;96894;-48
2021/06/19 05:48:21;;;;;;;2.53;1.47;;;24.10;99.90;;;24.24;54.39;101064.41;4953438;28;97481;-47
2021/06/19 05:50:47;;;;;;;2.80;1.48;;;24.10;99.90;;;24.26;54.20;101074.06;4941990;28;98875;-52
2021/06/19 05:53:13;;;;;;;1.90;1.10;;;24.10;99.90;;;24.25;54.78;101077.75;4947169;28;97711;-49
2021/06/19 05:55:39;;;;;;;3.17;1.30;;;24.10;99.90;;;24.27;54.26;101069.53;4946809;28;97657;-49
2021/06/19 05:58:05;;;;;;;3.83;1.40;;;24.10;99.90;;;24.29;54.49;101072.94;4964043;28;99533;-48
2021/06/19 06:00:30;;;;;;;2.08;1.15;;;24.10;99.90;;;24.29;55.00;101072.94;4946643;28;98513;-48
2021/06/19 06:02:56;;;;;;;2.00;1.30;;;24.20;99.90;;;24.30;55.27;101069.28;4931081;28;97465;-49
2021/06/19 06:05:22;;;;;;;4.20;1.58;;;24.20;99.90;;;24.29;54.50;101072.94;4947060;28;97002;-48
2021/06/19 06:07:48;;;;;;;2.33;1.50;;;24.10;99.90;;;24.31;55.03;101066.50;4913961;28;118399;-51
2021/06/19 06:10:13;;;;;;;1.40;1.30;;;24.20;99.90;;;24.31;55.46;101077.28;4930943;28;97079;-47
2021/06/19 06:12:40;;;;;;;3.13;1.50;;;24.20;99.90;;;24.30;54.52;101074.69;4939660;28;98583;-49
2021/06/19 06:15:08;;;;;;;2.50;1.52;;;24.10;99.90;;;24.30;53.91;101085.47;4933992;28;99702;-52
2021/06/19 06:17:34;;;;;;;4.35;1.25;;;24.20;99.90;;;24.27;54.10;101088.41;4940245;28;98831;-50
2021/06/19 06:20:00;;;;;;;2.50;1.38;;;24.20;99.90;;;24.26;53.90;101092.94;4929817;28;99541;-49
2021/06/19 06:22:26;;;;;;;2.20;1.13;;;24.20;99.90;;;24.30;53.96;101107.03;4956008;28;97600;-47
2021/06/19 06:24:52;;;;;;;1.90;1.53;;;24.20;99.90;;;24.29;53.98;101111.56;4951908;28;97769;-47
2021/06/19 06:27:18;;;;;;;1.83;1.20;;;24.20;99.90;;;24.30;53.94;101117.81;4941439;28;108041;-51
2021/06/19 06:29:44;;;;;;;1.55;1.40;;;24.20;99.90;;;24.29;53.61;101126.84;4935238;28;98040;-47
2021/06/19 06:32:09;;;;;;;1.50;1.30;;;24.20;99.90;;;24.31;53.60;101124.94;4925850;28;99176;-50
2021/06/19 06:34:35;;;;;;;3.95;1.67;;;24.20;99.90;;;24.34;54.06;101130.06;4956977;28;98212;-52
2021/06/19 06:37:01;;;;;;;3.50;1.50;;;24.20;99.90;;;24.30;53.85;101129.47;4945556;28;98668;-52
2021/06/19 06:39:27;;;;;;;3.53;2.20;;;24.20;99.90;;;24.31;53.83;101135.72;4934340;28;99515;-54
2021/06/19 06:41:54;;;;;;;3.05;1.63;;;24.20;99.90;;;24.29;53.40;101137.63;4938438;28;97434;-52
2021/06/19 06:44:20;;;;;;;4.00;2.17;;;24.20;99.90;;;24.31;53.73;101135.72;4946406;28;98484;-51
2021/06/19 06:46:46;;;;;;;2.80;1.90;;;24.20;99.90;;;24.32;53.92;101135.59;4952798;28;100646;-55
2021/06/19 06:49:12;;;;;;;1.80;1.50;;;24.20;99.90;;;24.31;53.44;101130.34;4954427;28;99522;-48
2021/06/19 06:51:38;;;;;;;5.95;1.70;;;24.20;99.90;;;24.30;53.59;101140.25;4952881;28;97569;-48
2021/06/19 06:54:05;;;;;;;2.10;1.70;;;24.20;99.90;;;24.34;53.86;101132.75;4967228;28;97631;-49
2021/06/19 06:56:31;;;;;;;5.63;1.70;;;24.20;99.90;;;24.38;53.33;101136.91;4950645;28;97828;-48
2021/06/19 06:58:57;;;;;;;3.10;2.05;;;24.30;99.90;;;24.38;53.78;101134.19;4951697;28;99385;-49
2021/06/19 07:01:23;;;;;;;4.13;1.88;;;24.30;99.90;;;24.40;53.95;101129.53;4937259;28;103538;-50
2021/06/19 07:03:50;;;;;;;4.15;2.38;;;24.30;99.90;;;24.40;53.73;101124.13;4915768;28;98411;-48
2021/06/19 07:06:15;;;;;;;2.10;2.00;;;24.30;99.90;;;24.40;55.25;101116.03;4948561;28;97989;-49
2021/06/19 07:08:41;;;;;;;3.42;1.88;;;24.30;99.90;;;24.42;55.84;101122.16;4950626;28;111052;-48
2021/06/19 07:11:07;;;;;;;4.03;2.22;;;24.30;99.90;;;24.43;55.69;101121.16;4918368;28;97749;-48
2021/06/19 07:13:33;;;;;;;3.75;2.10;;;24.30;99.90;;;24.44;55.65;101114.78;4934294;28;98552;-52
2021/06/19 07:15:59;;;;;;;5.80;2.13;;;24.30;99.90;;;24.45;55.78;101121.91;4922661;28;100106;-51
2021/06/19 07:18:25;;;;;;;5.87;1.80;;;24.30;99.90;;;24.45;53.61;101121.91;4931888;28;101084;-47
2021/06/19 07:20:51;;;;;;;5.35;2.53;;;24.30;99.90;;;24.46;54.18;101112.84;4946399;28;97184;-50
2021/06/19 07:23:17;;;;;;;2.50;2.10;;;24.40;99.90;;;24.45;53.57;101112.94;4956982;28;96891;-48
2021/06/19 07:25:42;;;;;;;2.05;1.95;;;24.40;99.90;;;24.44;54.54;101120.16;4942422;28;97963;-47
2021/06/19 07:28:08;;;;;;;4.07;2.17;;;24.40;99.90;;;24.44;54.07;101108.53;4952189;28;97032;-49
2021/06/19 07:30:34;;;;;;;4.15;2.10;;;24.40;99.90;;;24.45;54.22;101108.44;4943713;28;98320;-51
2021/06/19 07:33:00;;;;;;;3.30;1.90;;;24.40;99.90;;;24.46;55.24;101112.84;4944255;28;97448;-47
2021/06/19 07:35:26;;;;;;;4.15;2.05;;;24.40;99.90;;;24.47;53.81;101117.25;4943214;28;98733;-50
2021/06/19 07:37:52;;;;;;;2.38;1.80;;;24.40;99.90;;;24.47;53.52;101113.69;4936711;28;97397;-51
2021/06/19 07:40:18;;;;;;;3.15;1.98;;;24.40;99.90;;;24.48;53.68;101113.53;4943720;28;97783;-50
2021/06/19 07:42:44;;;;;;;2.60;2.00;;;24.40;99.90;;;24.50;54.20;101116.97;4955426;28;97443;-50
2021/06/19 07:45:11;;;;;;;2.90;1.85;;;24.40;99.90;;;24.53;53.31;101103.22;4942788;28;104772;-47
2021/06/19 07:47:37;;;;;;;1.75;1.50;;;24.40;99.90;;;24.54;53.76;101112.16;4941660;28;97883;-47
2021/06/19 07:50:05;;;;;;;2.42;1.70;;;24.40;99.90;;;24.56;53.38;101097.53;4922924;28;98325;-50
2021/06/19 07:52:31;;;;;;;2.63;1.67;;;24.40;99.90;;;24.57;53.17;101099.25;4936127;28;97536;-48
2021/06/19 07:54:57;;;;;;;2.90;1.65;;;24.50;99.90;;;24.59;52.82;101093.72;4941418;28;99958;-46
2021/06/19 07:57:23;;;;;;;5.38;2.13;;;24.50;99.90;;;24.58;52.67;101100.94;4933165;28;98227;-50
2021/06/19 07:59:49;;;;;;;3.67;1.50;;;24.50;99.90;;;24.59;51.95;101091.00;4958177;28;96759;-51
2021/06/19 08:02:14;;;;;;;3.25;1.25;;;24.50;99.80;;;24.60;52.35;101085.50;4934625;28;97965;-51
2021/06/19 08:04:40;;;;;;;2.58;1.58;;;24.50;99.70;;;24.60;51.50;101085.50;4949791;28;98518;-51
2021/06/19 08:07:07;;;;;;;4.03;2.15;;;24.50;99.10;;;24.63;51.58;101085.25;4943533;28;97288;-49
2021/06/19 08:09:33;;;;;;;1.65;1.30;;;24.50;99.20;;;24.62;51.48;101086.22;4945010;28;97466;-49
2021/06/19 08:11:59;;;;;;;3.03;1.50;;;24.50;99.10;;;24.66;51.67;101077.88;4943928;28;97311;-50
2021/06/19 08:14:25;;;;;;;4.22;2.28;;;24.60;99.40;;;24.63;52.28;101082.53;4945421;28;97504;-52
2021/06/19 08:16:56;;;;;;;4.15;2.10;;;24.60;99.40;;;24.67;51.43;101082.25;4959162;28;98186;-52
2021/06/19 08:19:23;;;;;;;2.90;1.80;;;24.60;99.00;;;24.66;51.90;101083.25;4946177;28;98068;-49
2021/06/19 08:21:50;;;;;;;3.65;2.00;;;24.60;99.30;;;24.68;51.06;101083.97;4964300;28;97981;-52
2021/06/19 08:24:15;;;;;;;3.45;1.65;;;24.60;98.70;;;24.70;51.62;101084.69;4955105;28;98334;-50
2021/06/19 08:26:43;;;;;;;3.15;2.30;;;24.60;99.10;;;24.76;52.12;101082.31;4966181;28;103678;-48
2021/06/19 08:29:09;;;;;;;2.65;1.83;;;24.60;99.60;;;24.78;51.84;101084.88;4948620;28;97412;-48
2021/06/19 08:31:39;;;;;;;2.65;1.95;;;24.70;99.30;;;24.79;51.08;101086.59;4951978;28;96807;-50
2021/06/19 08:34:07;;;;;;;2.60;1.98;;;24.70;98.70;;;24.82;50.62;101086.31;4950398;28;98036;-49
2021/06/19 08:36:34;;;;;;;3.53;1.90;;;24.80;98.60;;;24.86;50.96;101087.72;4963456;28;97472;-50
2021/06/19 08:39:01;;;;;;;3.60;2.08;;;24.80;98.50;;;24.86;51.22;101090.41;4935549;28;97387;-47
2021/06/19 08:41:27;;;;;;;7.47;2.10;;;24.80;98.70;;;24.87;51.59;101086.72;4939126;28;97857;-51
2021/06/19 08:43:54;;;;;;;3.20;1.77;;;24.80;98.90;;;24.92;51.66;101098.00;4950202;28;99694;-48
2021/06/19 08:46:23;;;;;;;4.10;1.77;;;24.80;98.90;;;24.93;51.44;101091.59;4957886;28;97717;-51
2021/06/19 08:48:52;;;;;;;2.08;1.67;;;24.90;98.90;;;24.92;50.95;101092.59;4941898;28;97076;-49
2021/06/19 08:51:21;;;;;;;2.10;1.85;;;24.90;98.60;;;24.90;50.51;101083.78;4962172;28;98692;-50
2021/06/19 08:53:50;;;;;;;2.22;1.65;;;24.90;98.20;;;24.93;50.13;101083.50;4952811;28;97440;-50
2021/06/19 08:56:18;;;;;;;3.38;1.88;;;24.90;97.90;;;24.93;51.20;101088.91;4948931;28;102753;-49
2021/06/19 08:58:45;;;;;;;3.28;2.20;;;24.90;98.50;;;24.96;50.50;101077.81;4961073;28;98209;-47
2021/06/19 09:01:12;;;;;;;5.22;2.58;;;24.90;98.00;;;24.97;50.49;101079.53;4946272;28;97301;-49
2021/06/19 09:03:39;;;;;;;3.97;1.90;;;24.90;98.30;;;25.02;50.24;101082.69;4931850;28;99396;-48
2021/06/19 09:06:26;;;;;;;2.15;1.73;;;25.00;98.10;;;24.95;50.59;101076.13;4937314;28;103844;-50
2021/06/19 09:09:14;;;;;;;3.03;1.67;;;24.90;98.10;;;24.97;51.05;101074.13;4925762;28;97528;-51
2021/06/19 09:11:45;;;;;;;1.92;1.45;;;24.90;98.40;;;25.01;50.17;101083.69;4926797;28;99845;-47
2021/06/19 09:14:16;;;;;;;3.15;1.90;;;25.00;97.80;;;24.99;51.05;101072.16;4921280;28;102893;-48
2021/06/19 09:16:55;;;;;;;3.67;1.92;;;25.00;98.50;;;24.93;51.24;101070.00;4925024;28;98127;-48
2021/06/19 09:19:28;;;;;;;6.65;1.77;;;24.90;98.40;;;24.89;51.57;101063.19;4904476;28;100294;-46
2021/06/19 09:22:18;;;;;;;5.18;1.70;;;24.90;98.70;;;25.00;50.84;101057.69;4914513;28;98861;-52
2021/06/19 09:24:58;;;;;;;4.45;1.70;;;24.90;98.40;;;25.08;51.15;101054.31;4927355;28;99015;-48
2021/06/19 09:27:40;;;;;;;4.50;2.05;;;25.00;98.60;;;25.00;51.11;101040.63;4918350;28;102134;-52
2021/06/19 09:30:14;;;;;;;2.33;1.80;;;25.00;98.40;;;25.00;51.59;101027.13;4930522;28;98743;-49
2021/06/19 09:32:46;;;;;;;4.10;1.80;;;25.00;98.80;;;25.03;51.23;101022.38;4928852;28;98624;-49
2021/06/19 09:35:26;;;;;;;3.08;1.92;;;25.00;98.50;;;25.01;51.25;101015.38;4930986;28;101987;-49
2021/06/19 09:38:12;;;;;;;2.78;1.75;;;25.00;98.40;;;25.07;51.34;101021.09;4931915;28;99677;-50
2021/06/19 09:40:45;;;;;;;2.30;1.77;;;25.10;98.70;;;25.02;51.90;101012.53;4951124;28;98175;-48
2021/06/19 09:43:29;;;;;;;3.17;1.70;;;25.00;98.80;;;25.17;50.68;101011.16;4911885;28;99803;-49
2021/06/19 09:46:07;;;;;;;3.03;1.80;;;25.10;98.20;;;25.27;50.62;101013.00;4924864;28;99143;-48
2021/06/19 09:48:36;;;;;;;2.75;1.90;;;25.20;98.00;;;25.36;50.26;101014.88;4933344;28;99637;-52
2021/06/19 09:51:22;;;;;;;2.58;1.55;;;25.40;97.80;;;25.11;50.97;101010.84;4932147;28;98548;-50
2021/06/19 09:54:08;;;;;;;2.65;1.38;;;25.20;98.00;;;25.03;50.97;101025.06;4932423;28;99579;-49
2021/06/19 09:57:01;;;;;;;3.10;1.70;;;25.00;98.30;;;25.08;50.99;101012.00;4955861;28;98615;-48
2021/06/19 09:59:33;;;;;;;4.10;1.88;;;25.00;98.30;;;25.20;50.46;101021.69;4936889;28;103315;-51
2021/06/19 10:02:14;;;;;;;3.80;1.67;;;25.20;97.90;;;25.32;50.01;101014.31;4935997;28;97763;-53
2021/06/19 10:04:40;;;;;;;2.90;1.40;;;25.30;97.50;;;25.36;50.04;101009.47;4938479;28;102211;-47
2021/06/19 10:07:07;;;;;;;3.30;1.80;;;25.40;97.80;;;25.46;49.10;101010.31;4934800;28;97769;-52
2021/06/19 10:09:34;;;;;;;3.80;1.70;;;25.40;97.10;;;25.56;48.86;101013.84;4937615;28;99534;-48
2021/06/19 10:12:01;;;;;;;4.68;2.03;;;25.60;97.00;;;25.47;49.70;101012.88;4936712;28;99929;-47
2021/06/19 10:14:27;;;;;;;5.07;1.80;;;25.50;97.30;;;25.38;50.23;101010.19;4929368;28;98235;-49